sensor_id;sensor_type;location;lat;lon;timestamp;P1;durP1;ratioP1;P2;durP2;ratioP2
44746;SDS011;30472;49.490;10.972;2023-08-08T00:02:10;4.80;;;3.10;;
44746;SDS011;30472;49.490;10.972;2023-08-08T00:04:36;3.70;;;3.20;;
44746;SDS011;30472;49.490;10.972;2023-08-08T00:07:01;6.17;;;3.70;;
44746;SDS011;30472;49.490;10.972;2023-08-08T00:09:27;3.20;;;2.90;;
44746;SDS011;30472;49.490;10.972;2023-08-08T00:11:53;6.27;;;2.97;;
44746;SDS011;30472;49.490;10.972;2023-08-08T00:14:18;5.57;;;3.27;;
44746;SDS011;30472;49.490;10.972;2023-08-08T00:16:44;3.40;;;3.10;;
44746;SDS011;30472;49.490;10.972;2023-08-08T00:19:09;4.60;;;2.70;;
44746;SDS011;30472;49.490;10.972;2023-08-08T00:21:35;5.47;;;2.67;;
44746;SDS011;30472;49.490;10.972;2023-08-08T00:24:00;2.77;;;2.57;;
44746;SDS011;30472;49.490;10.972;2023-08-08T00:26:26;5.37;;;3.20;;
44746;SDS011;30472;49.490;10.972;2023-08-08T00:28:51;3.17;;;2.87;;
44746;SDS011;30472;49.490;10.972;2023-08-08T00:31:18;2.87;;;2.63;;
44746;SDS011;30472;49.490;10.972;2023-08-08T00:33:44;3.50;;;2.83;;
44746;SDS011;30472;49.490;10.972;2023-08-08T00:36:10;3.03;;;2.83;;
44746;SDS011;30472;49.490;10.972;2023-08-08T00:38:36;5.07;;;2.70;;
44746;SDS011;30472;49.490;10.972;2023-08-08T00:41:01;2.93;;;2.63;;
44746;SDS011;30472;49.490;10.972;2023-08-08T00:43:27;3.53;;;2.67;;
44746;SDS011;30472;49.490;10.972;2023-08-08T00:45:52;6.23;;;3.10;;
44746;SDS011;30472;49.490;10.972;2023-08-08T00:48:18;4.23;;;3.20;;
44746;SDS011;30472;49.490;10.972;2023-08-08T00:50:44;2.77;;;2.53;;
44746;SDS011;30472;49.490;10.972;2023-08-08T00:53:11;2.83;;;2.53;;
44746;SDS011;30472;49.490;10.972;2023-08-08T00:55:37;5.23;;;2.63;;
44746;SDS011;30472;49.490;10.972;2023-08-08T00:58:04;2.40;;;2.20;;
44746;SDS011;30472;49.490;10.972;2023-08-08T01:00:30;3.43;;;2.90;;
44746;SDS011;30472;49.490;10.972;2023-08-08T01:02:56;5.00;;;2.80;;
44746;SDS011;30472;49.490;10.972;2023-08-08T01:05:22;2.83;;;2.53;;
44746;SDS011;30472;49.490;10.972;2023-08-08T01:10:29;3.87;;;2.70;;
44746;SDS011;30472;49.490;10.972;2023-08-08T01:13:06;2.83;;;2.40;;
44746;SDS011;30472;49.490;10.972;2023-08-08T01:15:35;3.10;;;2.40;;
44746;SDS011;30472;49.490;10.972;2023-08-08T01:18:05;5.20;;;2.77;;
44746;SDS011;30472;49.490;10.972;2023-08-08T01:20:33;2.83;;;2.63;;
44746;SDS011;30472;49.490;10.972;2023-08-08T01:25:42;2.53;;;2.33;;
44746;SDS011;30472;49.490;10.972;2023-08-08T01:28:09;5.63;;;2.80;;
44746;SDS011;30472;49.490;10.972;2023-08-08T01:30:35;3.20;;;2.40;;
44746;SDS011;30472;49.490;10.972;2023-08-08T01:33:02;3.47;;;2.87;;
44746;SDS011;30472;49.490;10.972;2023-08-08T01:35:29;2.67;;;2.47;;
44746;SDS011;30472;49.490;10.972;2023-08-08T01:40:53;2.50;;;2.30;;
44746;SDS011;30472;49.490;10.972;2023-08-08T01:43:21;2.80;;;1.80;;
44746;SDS011;30472;49.490;10.972;2023-08-08T01:45:48;3.47;;;2.27;;
44746;SDS011;30472;49.490;10.972;2023-08-08T01:48:14;5.67;;;2.40;;
44746;SDS011;30472;49.490;10.972;2023-08-08T01:50:39;3.47;;;2.50;;
44746;SDS011;30472;49.490;10.972;2023-08-08T01:53:05;2.63;;;2.20;;
44746;SDS011;30472;49.490;10.972;2023-08-08T01:55:31;3.00;;;2.30;;
44746;SDS011;30472;49.490;10.972;2023-08-08T01:57:56;4.10;;;2.20;;
44746;SDS011;30472;49.490;10.972;2023-08-08T02:00:22;2.60;;;2.33;;
44746;SDS011;30472;49.490;10.972;2023-08-08T02:02:47;5.60;;;3.10;;
44746;SDS011;30472;49.490;10.972;2023-08-08T02:05:13;2.80;;;2.60;;
44746;SDS011;30472;49.490;10.972;2023-08-08T02:07:39;15.17;;;9.80;;
44746;SDS011;30472;49.490;10.972;2023-08-08T02:10:04;6.50;;;4.60;;
44746;SDS011;30472;49.490;10.972;2023-08-08T02:12:30;8.63;;;5.57;;
44746;SDS011;30472;49.490;10.972;2023-08-08T02:14:58;9.83;;;5.83;;
44746;SDS011;30472;49.490;10.972;2023-08-08T02:17:24;11.47;;;7.40;;
44746;SDS011;30472;49.490;10.972;2023-08-08T02:19:50;5.70;;;3.27;;
44746;SDS011;30472;49.490;10.972;2023-08-08T02:22:16;3.97;;;3.27;;
44746;SDS011;30472;49.490;10.972;2023-08-08T02:24:42;3.20;;;2.90;;
44746;SDS011;30472;49.490;10.972;2023-08-08T02:27:08;3.53;;;2.70;;
44746;SDS011;30472;49.490;10.972;2023-08-08T02:29:34;5.33;;;3.07;;
44746;SDS011;30472;49.490;10.972;2023-08-08T02:32:00;5.60;;;2.90;;
44746;SDS011;30472;49.490;10.972;2023-08-08T02:34:26;3.47;;;2.73;;
44746;SDS011;30472;49.490;10.972;2023-08-08T02:36:51;3.03;;;2.77;;
44746;SDS011;30472;49.490;10.972;2023-08-08T02:39:17;4.50;;;2.60;;
44746;SDS011;30472;49.490;10.972;2023-08-08T02:41:43;2.60;;;2.40;;
44746;SDS011;30472;49.490;10.972;2023-08-08T02:44:09;2.70;;;2.30;;
44746;SDS011;30472;49.490;10.972;2023-08-08T02:46:35;3.17;;;2.30;;
44746;SDS011;30472;49.490;10.972;2023-08-08T02:49:02;6.50;;;2.80;;
44746;SDS011;30472;49.490;10.972;2023-08-08T02:51:29;2.37;;;2.17;;
44746;SDS011;30472;49.490;10.972;2023-08-08T02:53:54;6.83;;;2.40;;
44746;SDS011;30472;49.490;10.972;2023-08-08T02:56:21;2.27;;;2.07;;
44746;SDS011;30472;49.490;10.972;2023-08-08T02:58:47;2.20;;;2.00;;
44746;SDS011;30472;49.490;10.972;2023-08-08T03:01:12;2.50;;;2.27;;
44746;SDS011;30472;49.490;10.972;2023-08-08T03:03:40;2.00;;;1.90;;
44746;SDS011;30472;49.490;10.972;2023-08-08T03:06:05;2.13;;;2.00;;
44746;SDS011;30472;49.490;10.972;2023-08-08T03:08:31;2.40;;;2.03;;
44746;SDS011;30472;49.490;10.972;2023-08-08T03:10:57;2.83;;;2.27;;
44746;SDS011;30472;49.490;10.972;2023-08-08T03:13:22;2.23;;;1.97;;
44746;SDS011;30472;49.490;10.972;2023-08-08T03:15:48;2.00;;;1.80;;
44746;SDS011;30472;49.490;10.972;2023-08-08T03:18:14;1.87;;;1.77;;
44746;SDS011;30472;49.490;10.972;2023-08-08T03:20:39;2.77;;;2.23;;
44746;SDS011;30472;49.490;10.972;2023-08-08T03:23:05;3.40;;;2.07;;
44746;SDS011;30472;49.490;10.972;2023-08-08T03:25:30;2.33;;;2.00;;
44746;SDS011;30472;49.490;10.972;2023-08-08T03:27:57;2.30;;;2.03;;
44746;SDS011;30472;49.490;10.972;2023-08-08T03:30:23;4.90;;;2.10;;
44746;SDS011;30472;49.490;10.972;2023-08-08T03:32:48;2.70;;;2.00;;
44746;SDS011;30472;49.490;10.972;2023-08-08T03:35:14;3.43;;;2.50;;
44746;SDS011;30472;49.490;10.972;2023-08-08T03:37:40;3.70;;;2.63;;
44746;SDS011;30472;49.490;10.972;2023-08-08T03:40:07;4.00;;;2.20;;
44746;SDS011;30472;49.490;10.972;2023-08-08T03:42:33;4.60;;;2.20;;
44746;SDS011;30472;49.490;10.972;2023-08-08T03:44:59;2.50;;;2.23;;
44746;SDS011;30472;49.490;10.972;2023-08-08T03:47:24;2.50;;;2.17;;
44746;SDS011;30472;49.490;10.972;2023-08-08T03:49:51;2.63;;;2.37;;
44746;SDS011;30472;49.490;10.972;2023-08-08T03:52:20;4.60;;;2.93;;
44746;SDS011;30472;49.490;10.972;2023-08-08T03:54:46;2.80;;;2.60;;
44746;SDS011;30472;49.490;10.972;2023-08-08T03:57:12;3.57;;;2.57;;
44746;SDS011;30472;49.490;10.972;2023-08-08T03:59:37;4.60;;;2.80;;
44746;SDS011;30472;49.490;10.972;2023-08-08T04:02:03;3.30;;;2.77;;
44746;SDS011;30472;49.490;10.972;2023-08-08T04:04:29;2.70;;;2.50;;
44746;SDS011;30472;49.490;10.972;2023-08-08T04:06:54;6.17;;;3.00;;
44746;SDS011;30472;49.490;10.972;2023-08-08T04:09:20;6.43;;;3.17;;
44746;SDS011;30472;49.490;10.972;2023-08-08T04:11:46;3.43;;;3.00;;
44746;SDS011;30472;49.490;10.972;2023-08-08T04:14:11;2.87;;;2.63;;
44746;SDS011;30472;49.490;10.972;2023-08-08T04:16:38;2.90;;;2.57;;
44746;SDS011;30472;49.490;10.972;2023-08-08T04:19:04;3.77;;;2.47;;
44746;SDS011;30472;49.490;10.972;2023-08-08T04:21:29;3.00;;;2.60;;
44746;SDS011;30472;49.490;10.972;2023-08-08T04:23:57;3.17;;;2.90;;
44746;SDS011;30472;49.490;10.972;2023-08-08T04:26:23;2.93;;;2.70;;
44746;SDS011;30472;49.490;10.972;2023-08-08T04:28:50;3.53;;;2.63;;
44746;SDS011;30472;49.490;10.972;2023-08-08T04:31:16;3.80;;;2.80;;
44746;SDS011;30472;49.490;10.972;2023-08-08T04:33:41;3.03;;;2.80;;
44746;SDS011;30472;49.490;10.972;2023-08-08T04:36:07;6.07;;;2.87;;
44746;SDS011;30472;49.490;10.972;2023-08-08T04:38:32;5.33;;;3.03;;
44746;SDS011;30472;49.490;10.972;2023-08-08T04:40:59;4.67;;;3.30;;
44746;SDS011;30472;49.490;10.972;2023-08-08T04:43:25;3.60;;;3.30;;
44746;SDS011;30472;49.490;10.972;2023-08-08T04:45:52;4.57;;;3.70;;
44746;SDS011;30472;49.490;10.972;2023-08-08T04:48:18;3.90;;;3.60;;
44746;SDS011;30472;49.490;10.972;2023-08-08T04:50:45;5.07;;;3.40;;
44746;SDS011;30472;49.490;10.972;2023-08-08T04:53:11;3.67;;;3.37;;
44746;SDS011;30472;49.490;10.972;2023-08-08T04:55:37;4.40;;;3.70;;
44746;SDS011;30472;49.490;10.972;2023-08-08T04:58:03;3.63;;;3.33;;
44746;SDS011;30472;49.490;10.972;2023-08-08T05:00:28;4.37;;;3.43;;
44746;SDS011;30472;49.490;10.972;2023-08-08T05:02:54;4.07;;;3.63;;
44746;SDS011;30472;49.490;10.972;2023-08-08T05:05:19;5.10;;;3.90;;
44746;SDS011;30472;49.490;10.972;2023-08-08T05:07:45;3.57;;;3.13;;
44746;SDS011;30472;49.490;10.972;2023-08-08T05:10:11;3.43;;;2.97;;
44746;SDS011;30472;49.490;10.972;2023-08-08T05:12:36;4.43;;;2.90;;
44746;SDS011;30472;49.490;10.972;2023-08-08T05:15:02;3.33;;;2.83;;
44746;SDS011;30472;49.490;10.972;2023-08-08T05:17:29;2.70;;;2.50;;
44746;SDS011;30472;49.490;10.972;2023-08-08T05:19:56;2.80;;;2.60;;
44746;SDS011;30472;49.490;10.972;2023-08-08T05:22:23;3.97;;;2.77;;
44746;SDS011;30472;49.490;10.972;2023-08-08T05:24:49;3.07;;;2.50;;
44746;SDS011;30472;49.490;10.972;2023-08-08T05:27:14;3.10;;;2.23;;
44746;SDS011;30472;49.490;10.972;2023-08-08T05:29:40;2.93;;;2.70;;
44746;SDS011;30472;49.490;10.972;2023-08-08T05:32:06;3.17;;;2.70;;
44746;SDS011;30472;49.490;10.972;2023-08-08T05:34:33;3.40;;;2.67;;
44746;SDS011;30472;49.490;10.972;2023-08-08T05:37:00;4.57;;;2.57;;
44746;SDS011;30472;49.490;10.972;2023-08-08T05:39:26;2.47;;;2.23;;
44746;SDS011;30472;49.490;10.972;2023-08-08T05:41:52;2.50;;;2.30;;
44746;SDS011;30472;49.490;10.972;2023-08-08T05:44:19;2.20;;;2.00;;
44746;SDS011;30472;49.490;10.972;2023-08-08T05:46:44;2.30;;;2.00;;
44746;SDS011;30472;49.490;10.972;2023-08-08T05:49:10;2.93;;;2.03;;
44746;SDS011;30472;49.490;10.972;2023-08-08T05:51:36;3.47;;;2.13;;
44746;SDS011;30472;49.490;10.972;2023-08-08T05:54:01;2.20;;;2.00;;
44746;SDS011;30472;49.490;10.972;2023-08-08T05:56:33;3.03;;;2.07;;
44746;SDS011;30472;49.490;10.972;2023-08-08T05:59:01;3.93;;;1.90;;
44746;SDS011;30472;49.490;10.972;2023-08-08T06:01:26;2.13;;;1.93;;
44746;SDS011;30472;49.490;10.972;2023-08-08T06:03:52;3.37;;;1.80;;
44746;SDS011;30472;49.490;10.972;2023-08-08T06:06:18;1.60;;;1.50;;
44746;SDS011;30472;49.490;10.972;2023-08-08T06:08:43;3.33;;;1.87;;
44746;SDS011;30472;49.490;10.972;2023-08-08T06:11:09;2.13;;;1.77;;
44746;SDS011;30472;49.490;10.972;2023-08-08T06:13:35;2.23;;;1.60;;
44746;SDS011;30472;49.490;10.972;2023-08-08T06:16:01;2.53;;;1.73;;
44746;SDS011;30472;49.490;10.972;2023-08-08T06:18:31;3.33;;;1.70;;
44746;SDS011;30472;49.490;10.972;2023-08-08T06:20:59;4.60;;;1.90;;
44746;SDS011;30472;49.490;10.972;2023-08-08T06:23:25;2.40;;;2.20;;
44746;SDS011;30472;49.490;10.972;2023-08-08T06:25:51;1.53;;;1.43;;
44746;SDS011;30472;49.490;10.972;2023-08-08T06:28:16;2.67;;;1.67;;
44746;SDS011;30472;49.490;10.972;2023-08-08T06:30:42;4.47;;;2.20;;
44746;SDS011;30472;49.490;10.972;2023-08-08T06:33:07;2.50;;;1.87;;
44746;SDS011;30472;49.490;10.972;2023-08-08T06:35:33;2.40;;;1.67;;
44746;SDS011;30472;49.490;10.972;2023-08-08T06:37:59;2.93;;;1.70;;
44746;SDS011;30472;49.490;10.972;2023-08-08T06:40:24;2.80;;;1.53;;
44746;SDS011;30472;49.490;10.972;2023-08-08T06:42:50;1.60;;;1.50;;
44746;SDS011;30472;49.490;10.972;2023-08-08T06:45:16;2.87;;;1.40;;
44746;SDS011;30472;49.490;10.972;2023-08-08T06:47:41;4.03;;;1.40;;
44746;SDS011;30472;49.490;10.972;2023-08-08T06:50:07;2.83;;;1.35;;
44746;SDS011;30472;49.490;10.972;2023-08-08T06:52:33;2.03;;;1.20;;
44746;SDS011;30472;49.490;10.972;2023-08-08T06:54:59;2.75;;;1.20;;
44746;SDS011;30472;49.490;10.972;2023-08-08T06:57:24;2.83;;;1.00;;
44746;SDS011;30472;49.490;10.972;2023-08-08T06:59:50;2.13;;;1.17;;
44746;SDS011;30472;49.490;10.972;2023-08-08T07:02:18;2.83;;;1.30;;
44746;SDS011;30472;49.490;10.972;2023-08-08T07:04:45;1.83;;;1.27;;
44746;SDS011;30472;49.490;10.972;2023-08-08T07:07:11;1.13;;;1.00;;
44746;SDS011;30472;49.490;10.972;2023-08-08T07:09:36;1.55;;;1.10;;
44746;SDS011;30472;49.490;10.972;2023-08-08T07:12:02;1.83;;;1.20;;
44746;SDS011;30472;49.490;10.972;2023-08-08T07:14:29;2.35;;;1.00;;
44746;SDS011;30472;49.490;10.972;2023-08-08T07:16:55;1.35;;;1.10;;
44746;SDS011;30472;49.490;10.972;2023-08-08T07:19:20;1.98;;;1.17;;
44746;SDS011;30472;49.490;10.972;2023-08-08T07:21:46;1.98;;;1.00;;
44746;SDS011;30472;49.490;10.972;2023-08-08T07:24:12;2.75;;;1.25;;
44746;SDS011;30472;49.490;10.972;2023-08-08T07:26:38;2.85;;;1.00;;
44746;SDS011;30472;49.490;10.972;2023-08-08T07:29:04;2.15;;;1.20;;
44746;SDS011;30472;49.490;10.972;2023-08-08T07:31:31;1.27;;;1.00;;
44746;SDS011;30472;49.490;10.972;2023-08-08T07:33:57;2.33;;;1.20;;
44746;SDS011;30472;49.490;10.972;2023-08-08T07:36:23;2.15;;;0.93;;
44746;SDS011;30472;49.490;10.972;2023-08-08T07:38:48;3.92;;;0.95;;
44746;SDS011;30472;49.490;10.972;2023-08-08T07:41:14;2.63;;;1.08;;
44746;SDS011;30472;49.490;10.972;2023-08-08T07:43:40;2.10;;;1.00;;
44746;SDS011;30472;49.490;10.972;2023-08-08T07:46:05;1.00;;;0.90;;
44746;SDS011;30472;49.490;10.972;2023-08-08T07:48:31;1.38;;;1.05;;
44746;SDS011;30472;49.490;10.972;2023-08-08T07:50:56;4.07;;;1.40;;
44746;SDS011;30472;49.490;10.972;2023-08-08T07:53:22;1.88;;;1.08;;
44746;SDS011;30472;49.490;10.972;2023-08-08T07:55:47;2.60;;;0.98;;
44746;SDS011;30472;49.490;10.972;2023-08-08T07:58:13;1.05;;;0.90;;
44746;SDS011;30472;49.490;10.972;2023-08-08T08:00:39;1.83;;;1.00;;
44746;SDS011;30472;49.490;10.972;2023-08-08T08:03:04;1.95;;;1.05;;
44746;SDS011;30472;49.490;10.972;2023-08-08T08:05:30;2.10;;;0.80;;
44746;SDS011;30472;49.490;10.972;2023-08-08T08:07:56;1.98;;;1.10;;
44746;SDS011;30472;49.490;10.972;2023-08-08T08:10:22;2.03;;;1.10;;
44746;SDS011;30472;49.490;10.972;2023-08-08T08:12:47;1.35;;;1.20;;
44746;SDS011;30472;49.490;10.972;2023-08-08T08:15:13;1.70;;;0.95;;
44746;SDS011;30472;49.490;10.972;2023-08-08T08:17:40;2.40;;;1.20;;
44746;SDS011;30472;49.490;10.972;2023-08-08T08:20:06;0.85;;;0.80;;
44746;SDS011;30472;49.490;10.972;2023-08-08T08:22:36;3.75;;;1.10;;
44746;SDS011;30472;49.490;10.972;2023-08-08T08:25:03;2.70;;;1.00;;
44746;SDS011;30472;49.490;10.972;2023-08-08T08:27:29;3.83;;;0.90;;
44746;SDS011;30472;49.490;10.972;2023-08-08T08:29:55;2.10;;;1.17;;
44746;SDS011;30472;49.490;10.972;2023-08-08T08:32:20;1.83;;;1.23;;
44746;SDS011;30472;49.490;10.972;2023-08-08T08:34:46;2.40;;;1.10;;
44746;SDS011;30472;49.490;10.972;2023-08-08T08:37:12;0.93;;;0.85;;
44746;SDS011;30472;49.490;10.972;2023-08-08T08:39:37;2.28;;;0.80;;
44746;SDS011;30472;49.490;10.972;2023-08-08T08:42:04;1.17;;;0.98;;
44746;SDS011;30472;49.490;10.972;2023-08-08T08:44:31;2.38;;;0.98;;
44746;SDS011;30472;49.490;10.972;2023-08-08T08:47:01;1.13;;;0.80;;
44746;SDS011;30472;49.490;10.972;2023-08-08T08:49:31;1.58;;;1.00;;
44746;SDS011;30472;49.490;10.972;2023-08-08T08:52:00;0.70;;;0.70;;
44746;SDS011;30472;49.490;10.972;2023-08-08T08:54:27;1.83;;;1.20;;
44746;SDS011;30472;49.490;10.972;2023-08-08T08:56:54;2.10;;;0.88;;
44746;SDS011;30472;49.490;10.972;2023-08-08T08:59:21;1.05;;;0.90;;
44746;SDS011;30472;49.490;10.972;2023-08-08T09:01:46;2.00;;;0.80;;
44746;SDS011;30472;49.490;10.972;2023-08-08T09:04:12;2.63;;;1.27;;
44746;SDS011;30472;49.490;10.972;2023-08-08T09:06:41;2.90;;;0.90;;
44746;SDS011;30472;49.490;10.972;2023-08-08T09:09:08;1.20;;;0.85;;
44746;SDS011;30472;49.490;10.972;2023-08-08T09:11:34;2.75;;;0.90;;
44746;SDS011;30472;49.490;10.972;2023-08-08T09:14:00;2.60;;;1.00;;
44746;SDS011;30472;49.490;10.972;2023-08-08T09:16:27;1.77;;;1.10;;
44746;SDS011;30472;49.490;10.972;2023-08-08T09:18:53;1.85;;;0.95;;
44746;SDS011;30472;49.490;10.972;2023-08-08T09:21:18;1.67;;;1.00;;
44746;SDS011;30472;49.490;10.972;2023-08-08T09:23:44;1.45;;;0.90;;
44746;SDS011;30472;49.490;10.972;2023-08-08T09:26:09;2.80;;;1.10;;
44746;SDS011;30472;49.490;10.972;2023-08-08T09:28:38;3.58;;;1.10;;
44746;SDS011;30472;49.490;10.972;2023-08-08T09:31:04;1.10;;;0.82;;
44746;SDS011;30472;49.490;10.972;2023-08-08T09:33:30;3.40;;;0.90;;
44746;SDS011;30472;49.490;10.972;2023-08-08T09:35:56;1.50;;;0.77;;
44746;SDS011;30472;49.490;10.972;2023-08-08T09:38:21;2.60;;;0.82;;
44746;SDS011;30472;49.490;10.972;2023-08-08T09:40:47;2.22;;;1.00;;
44746;SDS011;30472;49.490;10.972;2023-08-08T09:43:12;1.17;;;0.60;;
44746;SDS011;30472;49.490;10.972;2023-08-08T09:45:38;1.17;;;0.90;;
44746;SDS011;30472;49.490;10.972;2023-08-08T09:48:06;2.03;;;1.15;;
44746;SDS011;30472;49.490;10.972;2023-08-08T09:50:33;2.72;;;1.00;;
44746;SDS011;30472;49.490;10.972;2023-08-08T09:52:59;1.10;;;0.95;;
44746;SDS011;30472;49.490;10.972;2023-08-08T09:55:28;1.20;;;0.80;;
44746;SDS011;30472;49.490;10.972;2023-08-08T09:57:55;1.70;;;1.08;;
44746;SDS011;30472;49.490;10.972;2023-08-08T10:00:23;1.90;;;1.10;;
44746;SDS011;30472;49.490;10.972;2023-08-08T10:02:52;2.58;;;1.05;;
44746;SDS011;30472;49.490;10.972;2023-08-08T10:05:19;2.80;;;1.10;;
44746;SDS011;30472;49.490;10.972;2023-08-08T10:07:46;1.70;;;0.82;;
44746;SDS011;30472;49.490;10.972;2023-08-08T10:10:11;4.20;;;1.02;;
44746;SDS011;30472;49.490;10.972;2023-08-08T10:12:38;1.48;;;0.95;;
44746;SDS011;30472;49.490;10.972;2023-08-08T10:15:06;1.17;;;1.00;;
44746;SDS011;30472;49.490;10.972;2023-08-08T10:17:39;3.45;;;1.30;;
44746;SDS011;30472;49.490;10.972;2023-08-08T10:20:07;1.00;;;0.90;;
44746;SDS011;30472;49.490;10.972;2023-08-08T10:22:41;1.58;;;1.10;;
44746;SDS011;30472;49.490;10.972;2023-08-08T10:25:08;1.83;;;1.13;;
44746;SDS011;30472;49.490;10.972;2023-08-08T10:27:36;2.33;;;0.98;;
44746;SDS011;30472;49.490;10.972;2023-08-08T10:30:03;3.17;;;1.08;;
44746;SDS011;30472;49.490;10.972;2023-08-08T10:32:39;2.47;;;1.20;;
44746;SDS011;30472;49.490;10.972;2023-08-08T10:35:11;1.05;;;0.90;;
44746;SDS011;30472;49.490;10.972;2023-08-08T10:37:38;1.40;;;0.90;;
44746;SDS011;30472;49.490;10.972;2023-08-08T10:40:04;1.75;;;0.90;;
44746;SDS011;30472;49.490;10.972;2023-08-08T10:42:32;1.10;;;0.98;;
44746;SDS011;30472;49.490;10.972;2023-08-08T10:45:08;1.25;;;1.05;;
44746;SDS011;30472;49.490;10.972;2023-08-08T10:47:36;3.30;;;1.10;;
44746;SDS011;30472;49.490;10.972;2023-08-08T10:50:09;0.98;;;0.75;;
44746;SDS011;30472;49.490;10.972;2023-08-08T10:55:19;3.58;;;1.10;;
44746;SDS011;30472;49.490;10.972;2023-08-08T10:57:56;2.15;;;1.02;;
44746;SDS011;30472;49.490;10.972;2023-08-08T11:00:23;1.33;;;1.05;;
44746;SDS011;30472;49.490;10.972;2023-08-08T11:02:51;1.45;;;1.00;;
44746;SDS011;30472;49.490;10.972;2023-08-08T11:05:18;3.85;;;1.25;;
44746;SDS011;30472;49.490;10.972;2023-08-08T11:07:44;2.35;;;1.35;;
44746;SDS011;30472;49.490;10.972;2023-08-08T11:10:10;1.67;;;1.30;;
44746;SDS011;30472;49.490;10.972;2023-08-08T11:12:35;4.97;;;1.10;;
44746;SDS011;30472;49.490;10.972;2023-08-08T11:15:01;1.15;;;1.02;;
44746;SDS011;30472;49.490;10.972;2023-08-08T11:17:27;1.17;;;0.82;;
44746;SDS011;30472;49.490;10.972;2023-08-08T11:19:52;2.05;;;1.10;;
44746;SDS011;30472;49.490;10.972;2023-08-08T11:22:20;1.60;;;1.00;;
44746;SDS011;30472;49.490;10.972;2023-08-08T11:24:47;1.10;;;1.00;;
44746;SDS011;30472;49.490;10.972;2023-08-08T11:27:15;2.78;;;1.10;;
44746;SDS011;30472;49.490;10.972;2023-08-08T11:29:40;1.15;;;0.90;;
44746;SDS011;30472;49.490;10.972;2023-08-08T11:32:13;1.67;;;1.20;;
44746;SDS011;30472;49.490;10.972;2023-08-08T11:34:39;2.25;;;1.35;;
44746;SDS011;30472;49.490;10.972;2023-08-08T11:37:04;2.25;;;0.98;;
44746;SDS011;30472;49.490;10.972;2023-08-08T11:39:30;0.93;;;0.80;;
44746;SDS011;30472;49.490;10.972;2023-08-08T11:41:56;2.88;;;0.90;;
44746;SDS011;30472;49.490;10.972;2023-08-08T11:44:22;2.88;;;1.00;;
44746;SDS011;30472;49.490;10.972;2023-08-08T11:46:48;1.83;;;1.30;;
44746;SDS011;30472;49.490;10.972;2023-08-08T11:49:16;2.63;;;1.38;;
44746;SDS011;30472;49.490;10.972;2023-08-08T11:51:43;2.90;;;1.20;;
44746;SDS011;30472;49.490;10.972;2023-08-08T11:54:10;1.30;;;1.15;;
44746;SDS011;30472;49.490;10.972;2023-08-08T11:56:36;1.75;;;1.20;;
44746;SDS011;30472;49.490;10.972;2023-08-08T11:59:02;1.35;;;1.10;;
44746;SDS011;30472;49.490;10.972;2023-08-08T12:01:28;1.77;;;1.13;;
44746;SDS011;30472;49.490;10.972;2023-08-08T12:03:56;2.15;;;0.80;;
44746;SDS011;30472;49.490;10.972;2023-08-08T12:06:22;2.50;;;1.10;;
44746;SDS011;30472;49.490;10.972;2023-08-08T12:08:53;1.45;;;1.08;;
44746;SDS011;30472;49.490;10.972;2023-08-08T12:11:19;2.60;;;1.40;;
44746;SDS011;30472;49.490;10.972;2023-08-08T12:13:45;1.52;;;1.08;;
44746;SDS011;30472;49.490;10.972;2023-08-08T12:16:13;3.35;;;1.23;;
44746;SDS011;30472;49.490;10.972;2023-08-08T12:18:39;2.15;;;1.02;;
44746;SDS011;30472;49.490;10.972;2023-08-08T12:21:06;1.33;;;0.98;;
44746;SDS011;30472;49.490;10.972;2023-08-08T12:23:33;1.92;;;1.35;;
44746;SDS011;30472;49.490;10.972;2023-08-08T12:26:02;1.65;;;1.10;;
44746;SDS011;30472;49.490;10.972;2023-08-08T12:28:28;2.45;;;1.35;;
44746;SDS011;30472;49.490;10.972;2023-08-08T12:30:54;1.08;;;0.98;;
44746;SDS011;30472;49.490;10.972;2023-08-08T12:33:20;3.03;;;1.15;;
44746;SDS011;30472;49.490;10.972;2023-08-08T12:35:47;1.65;;;1.00;;
44746;SDS011;30472;49.490;10.972;2023-08-08T12:38:13;1.92;;;1.00;;
44746;SDS011;30472;49.490;10.972;2023-08-08T12:40:39;1.63;;;1.10;;
44746;SDS011;30472;49.490;10.972;2023-08-08T12:43:05;1.60;;;1.20;;
44746;SDS011;30472;49.490;10.972;2023-08-08T12:45:31;1.95;;;1.13;;
44746;SDS011;30472;49.490;10.972;2023-08-08T12:47:56;1.55;;;1.05;;
44746;SDS011;30472;49.490;10.972;2023-08-08T12:50:22;2.20;;;1.15;;
44746;SDS011;30472;49.490;10.972;2023-08-08T12:52:48;3.08;;;1.17;;
44746;SDS011;30472;49.490;10.972;2023-08-08T12:55:14;2.63;;;1.10;;
44746;SDS011;30472;49.490;10.972;2023-08-08T12:57:42;3.97;;;1.33;;
44746;SDS011;30472;49.490;10.972;2023-08-08T13:00:08;1.98;;;1.00;;
44746;SDS011;30472;49.490;10.972;2023-08-08T13:02:34;1.40;;;1.30;;
44746;SDS011;30472;49.490;10.972;2023-08-08T13:05:00;2.65;;;1.13;;
44746;SDS011;30472;49.490;10.972;2023-08-08T13:07:28;2.30;;;1.17;;
44746;SDS011;30472;49.490;10.972;2023-08-08T13:09:53;2.38;;;1.40;;
44746;SDS011;30472;49.490;10.972;2023-08-08T13:12:19;5.43;;;1.67;;
44746;SDS011;30472;49.490;10.972;2023-08-08T13:14:44;3.03;;;1.17;;
44746;SDS011;30472;49.490;10.972;2023-08-08T13:17:10;2.25;;;1.42;;
44746;SDS011;30472;49.490;10.972;2023-08-08T13:19:36;2.03;;;1.17;;
44746;SDS011;30472;49.490;10.972;2023-08-08T13:22:01;1.67;;;1.15;;
44746;SDS011;30472;49.490;10.972;2023-08-08T13:24:27;1.70;;;1.05;;
44746;SDS011;30472;49.490;10.972;2023-08-08T13:26:53;2.15;;;1.33;;
44746;SDS011;30472;49.490;10.972;2023-08-08T13:29:20;2.30;;;1.20;;
44746;SDS011;30472;49.490;10.972;2023-08-08T13:31:45;3.00;;;1.08;;
44746;SDS011;30472;49.490;10.972;2023-08-08T13:34:11;1.75;;;1.30;;
44746;SDS011;30472;49.490;10.972;2023-08-08T13:36:37;4.15;;;1.30;;
44746;SDS011;30472;49.490;10.972;2023-08-08T13:39:02;2.17;;;1.20;;
44746;SDS011;30472;49.490;10.972;2023-08-08T13:41:29;5.25;;;1.17;;
44746;SDS011;30472;49.490;10.972;2023-08-08T13:43:55;2.60;;;1.20;;
44746;SDS011;30472;49.490;10.972;2023-08-08T13:46:21;2.80;;;1.30;;
44746;SDS011;30472;49.490;10.972;2023-08-08T13:48:46;3.03;;;1.20;;
44746;SDS011;30472;49.490;10.972;2023-08-08T13:51:12;1.70;;;1.20;;
44746;SDS011;30472;49.490;10.972;2023-08-08T13:53:37;2.05;;;1.15;;
44746;SDS011;30472;49.490;10.972;2023-08-08T13:56:03;2.38;;;1.10;;
44746;SDS011;30472;49.490;10.972;2023-08-08T13:58:29;1.42;;;1.20;;
44746;SDS011;30472;49.490;10.972;2023-08-08T14:00:55;2.47;;;1.00;;
44746;SDS011;30472;49.490;10.972;2023-08-08T14:03:21;2.35;;;1.30;;
44746;SDS011;30472;49.490;10.972;2023-08-08T14:05:48;1.80;;;1.38;;
44746;SDS011;30472;49.490;10.972;2023-08-08T14:08:14;1.90;;;1.40;;
44746;SDS011;30472;49.490;10.972;2023-08-08T14:10:40;1.23;;;1.10;;
44746;SDS011;30472;49.490;10.972;2023-08-08T14:13:06;2.10;;;1.30;;
44746;SDS011;30472;49.490;10.972;2023-08-08T14:15:31;1.50;;;1.13;;
44746;SDS011;30472;49.490;10.972;2023-08-08T14:17:58;1.55;;;1.27;;
44746;SDS011;30472;49.490;10.972;2023-08-08T14:20:25;1.88;;;1.25;;
44746;SDS011;30472;49.490;10.972;2023-08-08T14:22:51;1.55;;;1.15;;
44746;SDS011;30472;49.490;10.972;2023-08-08T14:25:16;1.65;;;1.40;;
44746;SDS011;30472;49.490;10.972;2023-08-08T14:27:42;1.25;;;1.15;;
44746;SDS011;30472;49.490;10.972;2023-08-08T14:30:07;1.75;;;1.20;;
44746;SDS011;30472;49.490;10.972;2023-08-08T14:32:33;4.65;;;1.40;;
44746;SDS011;30472;49.490;10.972;2023-08-08T14:35:00;1.30;;;1.17;;
44746;SDS011;30472;49.490;10.972;2023-08-08T14:37:27;1.95;;;1.20;;
44746;SDS011;30472;49.490;10.972;2023-08-08T14:39:53;2.28;;;1.38;;